createdAt,value
2023-04-11T00:00:59.192Z,6.40
2023-04-11T00:03:27.755Z,5.80
2023-04-11T00:05:56.269Z,6.00
2023-04-11T00:08:25.949Z,5.40
2023-04-11T00:10:54.056Z,5.83
2023-04-11T00:13:23.935Z,6.87
2023-04-11T00:15:55.408Z,6.77
2023-04-11T00:18:25.852Z,6.60
2023-04-11T00:20:53.934Z,6.50
2023-04-11T00:23:22.106Z,6.27
2023-04-11T00:25:52.093Z,5.60
2023-04-11T00:28:20.141Z,6.70
2023-04-11T00:30:48.204Z,5.87
2023-04-11T00:33:16.595Z,6.60
2023-04-11T00:35:45.263Z,6.27
2023-04-11T00:38:13.397Z,6.07
2023-04-11T00:40:41.587Z,7.13
2023-04-11T00:43:11.263Z,7.23
2023-04-11T00:45:39.831Z,6.70
2023-04-11T00:48:08.177Z,6.50
2023-04-11T00:50:41.074Z,6.57
2023-04-11T00:53:10.099Z,7.63
2023-04-11T00:55:38.218Z,6.50
2023-04-11T00:58:09.156Z,6.17
2023-04-11T01:00:38.752Z,7.03
2023-04-11T01:03:07.177Z,6.37
2023-04-11T01:05:36.145Z,7.50
2023-04-11T01:08:04.535Z,6.40
2023-04-11T01:10:33.189Z,6.73
2023-04-11T01:13:02.304Z,6.10
2023-04-11T01:15:30.948Z,6.37
2023-04-11T01:18:02.096Z,7.57
2023-04-11T01:20:31.867Z,7.23
2023-04-11T01:23:02.695Z,8.30
2023-04-11T01:25:32.226Z,8.03
2023-04-11T01:28:00.447Z,8.30
2023-04-11T01:30:28.611Z,8.33
2023-04-11T01:32:56.759Z,8.87
2023-04-11T01:35:25.094Z,8.67
2023-04-11T01:37:53.478Z,8.80
2023-04-11T01:40:23.794Z,8.50
2023-04-11T01:42:53.876Z,9.33
2023-04-11T01:45:23.101Z,8.53
2023-04-11T01:47:52.396Z,9.23
2023-04-11T01:50:20.592Z,9.10
2023-04-11T01:52:49.673Z,9.33
2023-04-11T01:55:17.767Z,8.80
2023-04-11T01:57:46.025Z,9.03
2023-04-11T02:00:16.498Z,9.17
2023-04-11T02:02:44.758Z,10.23
2023-04-11T02:05:13.130Z,10.73
2023-04-11T02:07:41.236Z,10.70
2023-04-11T02:10:10.699Z,11.00
2023-04-11T02:12:38.731Z,10.77
2023-04-11T02:15:07.843Z,10.30
2023-04-11T02:17:37.272Z,11.10
2023-04-11T02:20:07.298Z,10.90
2023-04-11T02:22:35.371Z,11.10
2023-04-11T02:25:03.739Z,10.70
2023-04-11T02:27:31.934Z,11.30
2023-04-11T02:30:00.230Z,10.60
2023-04-11T02:32:30.465Z,10.90
2023-04-11T02:34:59.925Z,10.80
2023-04-11T02:37:28.025Z,10.63
2023-04-11T02:39:56.293Z,11.40
2023-04-11T02:42:24.383Z,10.90
2023-04-11T02:44:55.476Z,10.73
2023-04-11T02:47:23.633Z,10.70
2023-04-11T02:49:52.001Z,10.80
2023-04-11T02:52:21.394Z,11.17
2023-04-11T02:54:49.456Z,10.80
2023-04-11T02:57:17.621Z,10.80
2023-04-11T02:59:45.776Z,10.50
2023-04-11T03:02:13.937Z,10.30
2023-04-11T03:04:41.988Z,10.77
2023-04-11T03:07:10.249Z,10.67
2023-04-11T03:09:39.907Z,10.40
2023-04-11T03:12:08.143Z,10.80
2023-04-11T03:14:36.174Z,10.50
2023-04-11T03:17:04.194Z,10.63
2023-04-11T03:19:32.420Z,10.80
2023-04-11T03:22:02.646Z,11.63
2023-04-11T03:24:30.734Z,11.80
2023-04-11T03:27:01.386Z,11.37
2023-04-11T03:29:29.435Z,11.30
2023-04-11T03:31:57.539Z,11.50
2023-04-11T03:34:26.095Z,11.43
2023-04-11T03:36:54.377Z,12.03
2023-04-11T03:39:22.767Z,11.60
2023-04-11T03:41:50.977Z,12.10
2023-04-11T03:44:20.440Z,11.70
2023-04-11T03:46:48.574Z,11.80
2023-04-11T03:49:16.717Z,11.60
2023-04-11T03:51:44.872Z,11.70
2023-04-11T03:54:15.713Z,11.20
2023-04-11T03:56:46.700Z,11.40
2023-04-11T03:59:14.778Z,11.53
2023-04-11T04:01:44.407Z,11.63
2023-04-11T04:04:12.472Z,11.90
2023-04-11T04:06:40.649Z,11.70
2023-04-11T04:09:08.786Z,11.40
2023-04-11T04:11:36.863Z,11.53
2023-04-11T04:14:04.962Z,11.70
2023-04-11T04:16:33.169Z,11.90
2023-04-11T04:19:02.750Z,12.27
2023-04-11T04:21:32.848Z,11.90
2023-04-11T04:24:03.817Z,12.10
2023-04-11T04:26:32.533Z,11.90
2023-04-11T04:29:04.522Z,12.20
2023-04-11T04:31:34.651Z,11.90
2023-04-11T04:34:08.723Z,11.73
2023-04-11T04:36:46.277Z,11.27
2023-04-11T04:39:17.520Z,11.57
2023-04-11T04:41:48.823Z,11.50
2023-04-11T04:44:17.504Z,10.80
2023-04-11T04:46:45.852Z,11.20
2023-04-11T04:49:15.809Z,11.20
2023-04-11T04:51:43.927Z,11.13
2023-04-11T04:54:12.136Z,10.60
2023-04-11T04:56:41.564Z,10.80
2023-04-11T04:59:14.604Z,10.90
2023-04-11T05:01:42.871Z,11.03
2023-04-11T05:04:11.578Z,11.57
2023-04-11T05:06:41.348Z,10.97
2023-04-11T05:09:09.413Z,10.80
2023-04-11T05:11:37.468Z,11.20
2023-04-11T05:14:05.726Z,11.17
2023-04-11T05:16:33.962Z,10.90
2023-04-11T05:19:02.068Z,10.30
2023-04-11T05:21:30.175Z,10.80
2023-04-11T05:23:59.668Z,10.40
2023-04-11T05:26:27.751Z,10.10
2023-04-11T05:28:55.906Z,11.07
2023-04-11T05:31:25.666Z,10.60
2023-04-11T05:33:54.070Z,10.50
2023-04-11T05:36:22.393Z,10.47
2023-04-11T05:38:50.613Z,10.70
2023-04-11T05:41:20.181Z,10.60
2023-04-11T05:43:48.377Z,10.03
2023-04-11T05:46:16.607Z,9.90
2023-04-11T05:48:44.758Z,9.97
2023-04-11T05:51:18.249Z,10.13
2023-04-11T05:53:49.117Z,9.47
2023-04-11T05:56:17.252Z,10.00
2023-04-11T05:58:46.791Z,9.77
2023-04-11T06:01:18.429Z,9.10
2023-04-11T06:03:47.100Z,9.80
2023-04-11T06:06:15.884Z,9.20
2023-04-11T06:08:44.228Z,9.90
2023-04-11T06:11:12.305Z,9.60
2023-04-11T06:13:40.425Z,9.43
2023-04-11T06:16:10.849Z,8.70
2023-04-11T06:18:38.964Z,8.30
2023-04-11T06:21:07.352Z,8.40
2023-04-11T06:23:37.269Z,8.40
2023-04-11T06:26:11.603Z,8.60
2023-04-11T06:28:40.005Z,8.90
2023-04-11T06:31:11.158Z,8.73
2023-04-11T06:33:39.465Z,8.70
2023-04-11T06:36:08.168Z,8.07
2023-04-11T06:38:36.700Z,8.43
2023-04-11T06:41:04.910Z,8.13
2023-04-11T06:43:33.089Z,8.37
2023-04-11T06:46:01.777Z,7.90
2023-04-11T06:48:31.310Z,8.10
2023-04-11T06:50:59.385Z,8.00
2023-04-11T06:53:27.738Z,8.00
2023-04-11T06:55:55.808Z,8.30
2023-04-11T06:58:23.894Z,8.13
2023-04-11T07:00:52.992Z,8.00
2023-04-11T07:03:21.279Z,8.20
2023-04-11T07:05:51.560Z,8.27
2023-04-11T07:08:19.680Z,7.97
2023-04-11T07:10:47.769Z,7.70
2023-04-11T07:13:16.030Z,8.10
2023-04-11T07:15:44.241Z,9.13
2023-04-11T07:18:12.389Z,7.80
2023-04-11T07:20:40.578Z,8.57
2023-04-11T07:23:10.180Z,8.37
2023-04-11T07:25:39.305Z,8.70
2023-04-11T07:28:08.497Z,8.43
2023-04-11T07:30:36.786Z,8.17
2023-04-11T07:33:05.339Z,7.87
2023-04-11T07:35:34.755Z,7.70
2023-04-11T07:38:02.874Z,7.90
2023-04-11T07:40:32.541Z,8.40
2023-04-11T07:43:01.851Z,8.90
2023-04-11T07:45:30.040Z,8.67
2023-04-11T07:47:58.163Z,8.50
2023-04-11T07:50:26.373Z,9.43
2023-04-11T07:52:55.879Z,9.70
2023-04-11T07:55:23.899Z,10.03
2023-04-11T07:57:53.365Z,9.93
2023-04-11T08:00:22.602Z,9.80
2023-04-11T08:02:51.073Z,10.10
2023-04-11T08:05:19.606Z,9.00
2023-04-11T08:07:47.880Z,9.87
2023-04-11T08:10:16.104Z,10.43
2023-04-11T08:12:45.323Z,8.50
2023-04-11T08:15:15.088Z,8.60
2023-04-11T08:17:43.841Z,9.07
2023-04-11T08:20:13.899Z,8.40
2023-04-11T08:22:44.651Z,8.77
2023-04-11T08:25:14.273Z,8.23
2023-04-11T08:27:43.073Z,8.70
2023-04-11T08:30:11.658Z,8.70
2023-04-11T08:32:42.535Z,7.80
2023-04-11T08:35:11.349Z,8.13
2023-04-11T08:37:39.561Z,8.57
2023-04-11T08:40:09.305Z,9.57
2023-04-11T08:42:37.829Z,8.10
2023-04-11T08:45:08.858Z,7.93
2023-04-11T08:47:37.628Z,8.40
2023-04-11T08:50:08.501Z,8.53
2023-04-11T08:52:39.659Z,8.07
2023-04-11T08:55:08.217Z,7.50
2023-04-11T08:57:38.293Z,8.70
2023-04-11T09:00:14.579Z,8.00
2023-04-11T09:03:00.009Z,7.40
2023-04-11T09:05:33.871Z,7.27
2023-04-11T09:08:04.390Z,6.80
2023-04-11T09:10:32.548Z,7.13
2023-04-11T09:13:00.781Z,6.87
2023-04-11T09:15:31.676Z,7.20
2023-04-11T09:18:01.070Z,8.03
2023-04-11T09:20:31.243Z,7.93
2023-04-11T09:23:00.790Z,7.43
2023-04-11T09:25:29.418Z,7.37
2023-04-11T09:28:09.898Z,6.90
2023-04-11T09:30:38.133Z,6.43
2023-04-11T09:33:22.528Z,6.50
2023-04-11T09:35:52.168Z,6.47
2023-04-11T09:38:32.670Z,6.80
2023-04-11T09:41:01.706Z,5.77
2023-04-11T09:43:29.899Z,6.30
2023-04-11T09:46:10.710Z,5.67
2023-04-11T09:48:45.907Z,6.50
2023-04-11T09:51:24.280Z,5.60
2023-04-11T09:54:03.553Z,6.03
2023-04-11T09:56:34.174Z,7.40
2023-04-11T09:59:04.005Z,6.47
2023-04-11T10:01:32.311Z,6.10
2023-04-11T10:04:00.993Z,6.77
2023-04-11T10:06:33.691Z,6.10
2023-04-11T10:09:09.822Z,6.30
2023-04-11T10:11:38.396Z,6.30
2023-04-11T10:14:06.488Z,6.60
2023-04-11T10:16:34.781Z,7.37
2023-04-11T10:19:25.135Z,5.90
2023-04-11T10:21:53.364Z,6.50
2023-04-11T10:24:23.289Z,6.80
2023-04-11T10:26:53.108Z,6.60
2023-04-11T10:29:51.653Z,6.00
2023-04-11T10:32:22.244Z,6.40
2023-04-11T10:35:32.957Z,6.00
2023-04-11T10:38:01.112Z,6.00
2023-04-11T10:40:30.791Z,5.87
2023-04-11T10:43:18.962Z,6.77
2023-04-11T10:46:18.358Z,6.40
2023-04-11T10:48:58.861Z,6.47
2023-04-11T10:51:28.152Z,6.47
2023-04-11T10:53:59.625Z,6.40
2023-04-11T10:56:58.691Z,6.13
2023-04-11T10:59:58.091Z,5.80
2023-04-11T11:02:39.189Z,6.67
2023-04-11T11:05:18.367Z,6.67
2023-04-11T11:07:51.716Z,6.30
2023-04-11T11:10:39.480Z,6.00
2023-04-11T11:13:07.650Z,6.30
2023-04-11T11:15:37.930Z,5.90
2023-04-11T11:18:10.560Z,5.97
2023-04-11T11:20:38.952Z,6.13
2023-04-11T11:23:09.133Z,6.10
2023-04-11T11:25:37.538Z,5.90
2023-04-11T11:28:07.372Z,5.67
2023-04-11T11:30:36.243Z,5.77
2023-04-11T11:33:19.151Z,5.27
2023-04-11T11:35:52.975Z,5.63
2023-04-11T11:38:21.896Z,5.30
2023-04-11T11:40:50.402Z,5.70
2023-04-11T11:43:18.619Z,6.00
2023-04-11T11:45:48.546Z,8.20
2023-04-11T11:52:13.268Z,7.57
2023-04-11T11:55:10.394Z,6.17
2023-04-11T11:57:58.694Z,6.23
2023-04-11T12:00:54.163Z,5.30
2023-04-11T12:03:55.267Z,6.33
2023-04-11T12:06:23.837Z,6.13
2023-04-11T12:08:53.898Z,4.80
2023-04-11T12:11:22.421Z,4.67
2023-04-11T12:13:53.990Z,4.53
2023-04-11T12:16:24.153Z,4.67
2023-04-11T12:18:58.054Z,3.90
2023-04-11T12:21:26.801Z,3.70
2023-04-11T12:23:55.279Z,3.80
2023-04-11T12:26:25.120Z,6.50
2023-04-11T12:28:53.214Z,4.10
2023-04-11T12:31:21.899Z,4.17
2023-04-11T12:33:50.088Z,3.97
2023-04-11T12:36:19.616Z,4.10
2023-04-11T12:38:47.662Z,3.67
2023-04-11T12:41:31.542Z,4.53
2023-04-11T12:44:02.421Z,4.17
2023-04-11T12:46:30.676Z,4.13
2023-04-11T12:48:58.843Z,3.93
2023-04-11T12:51:28.592Z,4.53
2023-04-11T12:53:56.644Z,4.80
2023-04-11T12:56:25.030Z,4.80
2023-04-11T12:58:58.018Z,4.53
2023-04-11T13:01:26.414Z,6.97
2023-04-11T13:03:54.608Z,5.37
2023-04-11T13:06:23.177Z,4.80
2023-04-11T13:08:52.766Z,5.03
2023-04-11T13:11:21.402Z,5.23
2023-04-11T13:13:49.980Z,4.30
2023-04-11T13:16:18.343Z,5.60
2023-04-11T13:18:46.513Z,4.13
2023-04-11T13:21:14.722Z,3.93
2023-04-11T13:23:56.052Z,4.30
2023-04-11T13:26:51.150Z,4.70
2023-04-11T13:29:19.294Z,3.67
2023-04-11T13:31:47.445Z,3.13
2023-04-11T13:34:15.811Z,3.83
2023-04-11T13:36:44.133Z,3.20
2023-04-11T13:39:13.591Z,3.13
2023-04-11T13:41:43.288Z,3.70
2023-04-11T13:44:11.458Z,4.00
2023-04-11T13:46:39.552Z,4.53
2023-04-11T13:49:07.730Z,3.40
2023-04-11T13:51:36.022Z,5.13
2023-04-11T13:54:04.285Z,8.07
2023-04-11T13:56:32.444Z,4.63
2023-04-11T13:59:02.144Z,3.97
2023-04-11T14:01:30.389Z,4.13
2023-04-11T14:03:58.918Z,3.20
2023-04-11T14:06:27.530Z,3.60
2023-04-11T14:08:55.816Z,3.33
2023-04-11T14:11:23.902Z,3.60
2023-04-11T14:13:52.178Z,3.97
2023-04-11T14:16:21.726Z,3.83
2023-04-11T14:18:49.926Z,3.23
2023-04-11T14:21:18.260Z,3.50
2023-04-11T14:23:46.393Z,4.17
2023-04-11T14:26:14.481Z,4.20
2023-04-11T14:28:43.299Z,4.90
2023-04-11T14:31:11.991Z,3.80
2023-04-11T14:33:41.812Z,4.07
2023-04-11T14:36:10.709Z,4.73
2023-04-11T14:38:38.818Z,4.43
2023-04-11T14:41:07.575Z,5.10
2023-04-11T14:43:35.937Z,5.07
2023-04-11T14:46:04.114Z,4.50
2023-04-11T14:48:32.286Z,4.93
2023-04-11T14:51:03.832Z,4.33
2023-04-11T14:53:32.505Z,3.80
2023-04-11T14:56:00.673Z,4.20
2023-04-11T14:58:28.820Z,4.03
2023-04-11T15:00:57.004Z,4.20
2023-04-11T15:03:26.093Z,4.60
2023-04-11T15:05:54.476Z,3.80
2023-04-11T15:08:23.981Z,4.90
2023-04-11T15:10:54.676Z,4.50
2023-04-11T15:13:23.538Z,4.77
2023-04-11T15:15:52.131Z,4.00
2023-04-11T15:18:24.740Z,3.80
2023-04-11T15:20:53.682Z,4.00
2023-04-11T15:23:24.085Z,4.10
2023-04-11T15:25:55.982Z,4.67
2023-04-11T15:28:25.501Z,3.93
2023-04-11T15:30:54.844Z,4.77
2023-04-11T15:33:24.428Z,3.80
2023-04-11T15:35:54.310Z,3.57
2023-04-11T15:38:24.385Z,5.10
2023-04-11T15:40:53.019Z,3.60
2023-04-11T15:43:21.165Z,4.00
2023-04-11T15:45:52.311Z,5.63
2023-04-11T15:48:20.762Z,4.37
2023-04-11T15:50:48.912Z,4.23
2023-04-11T15:53:17.042Z,4.77
2023-04-11T15:55:47.337Z,4.33
2023-04-11T15:58:15.724Z,4.83
2023-04-11T16:00:45.137Z,4.53
2023-04-11T16:03:13.842Z,4.97
2023-04-11T16:05:43.296Z,4.47
2023-04-11T16:08:11.815Z,4.67
2023-04-11T16:10:40.381Z,5.27
2023-04-11T16:13:10.227Z,4.97
2023-04-11T16:15:38.335Z,4.73
2023-04-11T16:18:06.691Z,4.40
2023-04-11T16:20:35.093Z,4.90
2023-04-11T16:23:03.463Z,4.90
2023-04-11T16:25:31.713Z,4.77
2023-04-11T16:27:59.836Z,5.00
2023-04-11T16:30:29.499Z,4.80
2023-04-11T16:32:57.644Z,5.27
2023-04-11T16:35:25.838Z,5.43
2023-04-11T16:37:57.565Z,4.93
2023-04-11T16:40:26.531Z,4.40
2023-04-11T16:42:54.761Z,4.80
2023-04-11T16:45:22.956Z,5.23
2023-04-11T16:47:52.644Z,4.80
2023-04-11T16:50:21.280Z,5.00
2023-04-11T16:52:49.501Z,5.43
2023-04-11T16:55:17.879Z,6.17
2023-04-11T16:57:46.098Z,5.13
2023-04-11T17:00:17.072Z,5.00
2023-04-11T17:02:45.631Z,4.77
2023-04-11T17:05:15.629Z,5.90
2023-04-11T17:07:43.867Z,5.00
2023-04-11T17:10:12.664Z,5.73
2023-04-11T17:12:40.934Z,5.05
2023-04-11T17:15:09.751Z,5.90
2023-04-11T17:17:37.907Z,4.80
2023-04-11T17:20:09.663Z,5.80
2023-04-11T17:22:41.466Z,4.80
2023-04-11T17:25:10.511Z,7.83
2023-04-11T17:27:38.735Z,5.13
2023-04-11T17:30:09.590Z,4.90
2023-04-11T17:32:38.331Z,4.80
2023-04-11T17:35:07.465Z,4.80
2023-04-11T17:37:37.068Z,4.90
2023-04-11T17:40:12.616Z,3.90
2023-04-11T17:42:41.257Z,5.80
2023-04-11T17:45:17.766Z,4.97
2023-04-11T17:47:48.026Z,4.30
2023-04-11T17:50:17.090Z,4.70
2023-04-11T17:52:46.217Z,4.77
2023-04-11T17:55:17.194Z,4.63
2023-04-11T17:57:45.978Z,4.30
2023-04-11T18:00:19.429Z,4.20
2023-04-11T18:02:49.497Z,3.70
2023-04-11T18:05:23.932Z,4.67
2023-04-11T18:07:56.580Z,4.57
2023-04-11T18:10:27.619Z,5.90
2023-04-11T18:12:57.471Z,5.17
2023-04-11T18:15:26.861Z,5.87
2023-04-11T18:17:55.231Z,4.70
2023-04-11T18:20:23.426Z,4.77
2023-04-11T18:22:54.739Z,5.30
2023-04-11T18:25:23.720Z,4.10
2023-04-11T18:27:53.266Z,4.73
2023-04-11T18:30:21.457Z,5.10
2023-04-11T18:32:51.690Z,4.87
2023-04-11T18:35:20.055Z,5.50
2023-04-11T18:37:48.217Z,4.80
2023-04-11T18:40:17.457Z,5.73
2023-04-11T18:42:48.865Z,4.83
2023-04-11T18:45:20.709Z,4.13
2023-04-11T18:47:49.044Z,5.70
2023-04-11T18:50:18.042Z,5.80
2023-04-11T18:52:48.672Z,5.33
2023-04-11T18:55:17.676Z,5.10
2023-04-11T18:57:48.455Z,5.50
2023-04-11T19:00:20.443Z,4.80
2023-04-11T19:02:50.819Z,6.07
2023-04-11T19:05:19.466Z,5.70
2023-04-11T19:07:47.802Z,4.97
2023-04-11T19:10:16.030Z,5.10
2023-04-11T19:12:44.208Z,5.40
2023-04-11T19:15:13.617Z,5.47
2023-04-11T19:17:43.235Z,5.20
2023-04-11T19:20:13.629Z,5.50
2023-04-11T19:22:42.761Z,5.50
2023-04-11T19:25:12.219Z,5.50
2023-04-11T19:27:41.902Z,6.00
2023-04-11T19:30:13.606Z,6.00
2023-04-11T19:32:46.091Z,5.73
2023-04-11T19:35:14.991Z,6.90
2023-04-11T19:37:43.147Z,5.70
2023-04-11T19:40:13.625Z,7.83
2023-04-11T19:42:42.292Z,6.40
2023-04-11T19:45:11.733Z,5.57
2023-04-11T19:47:41.316Z,6.10
2023-04-11T19:50:13.209Z,5.67
2023-04-11T19:52:42.141Z,8.23
2023-04-11T19:55:10.893Z,6.00
2023-04-11T19:57:40.292Z,5.50
2023-04-11T20:00:12.302Z,5.90
2023-04-11T20:02:44.367Z,5.70
2023-04-11T20:05:15.388Z,5.53
2023-04-11T20:07:44.304Z,5.50
2023-04-11T20:10:12.959Z,6.37
2023-04-11T20:12:41.273Z,9.20
2023-04-11T20:15:10.697Z,7.07
2023-04-11T20:17:39.047Z,6.00
2023-04-11T20:20:10.992Z,5.30
2023-04-11T20:22:40.566Z,6.47
2023-04-11T20:25:11.632Z,5.77
2023-04-11T20:27:40.745Z,5.20
2023-04-11T20:30:10.707Z,5.20
2023-04-11T20:32:39.192Z,5.40
2023-04-11T20:35:08.762Z,4.97
2023-04-11T20:37:37.205Z,4.87
2023-04-11T20:40:09.677Z,4.60
2023-04-11T20:42:40.054Z,5.03
2023-04-11T20:45:10.409Z,4.37
2023-04-11T20:47:38.722Z,3.90
2023-04-11T20:50:10.136Z,4.70
2023-04-11T20:52:41.184Z,4.50
2023-04-11T20:55:11.834Z,5.63
2023-04-11T20:57:40.076Z,3.80
2023-04-11T21:00:13.945Z,3.83
2023-04-11T21:02:44.499Z,4.17
2023-04-11T21:05:13.356Z,4.37
2023-04-11T21:07:42.216Z,4.43
2023-04-11T21:10:13.101Z,4.77
2023-04-11T21:12:42.866Z,3.90
2023-04-11T21:15:11.888Z,4.47
2023-04-11T21:17:40.571Z,4.47
2023-04-11T21:20:17.735Z,4.73
2023-04-11T21:22:46.849Z,4.47
2023-04-11T21:25:16.943Z,4.53
2023-04-11T21:27:45.345Z,4.20
2023-04-11T21:30:14.752Z,3.80
2023-04-11T21:32:43.107Z,4.10
2023-04-11T21:35:12.452Z,4.47
2023-04-11T21:37:40.581Z,4.43
2023-04-11T21:40:09.547Z,4.50
2023-04-11T21:42:39.100Z,3.93
2023-04-11T21:45:09.360Z,4.03
2023-04-11T21:47:37.461Z,4.17
2023-04-11T21:50:06.018Z,4.73
2023-04-11T21:52:34.081Z,4.30
2023-04-11T21:55:02.223Z,3.57
2023-04-11T21:57:33.355Z,3.90
2023-04-11T22:00:04.136Z,4.10
2023-04-11T22:02:32.397Z,4.00
2023-04-11T22:05:06.940Z,4.60
2023-04-11T22:07:39.377Z,4.67
2023-04-11T22:10:12.019Z,4.03
2023-04-11T22:12:40.669Z,4.40
2023-04-11T22:15:12.705Z,3.87
2023-04-11T22:17:42.225Z,4.97
2023-04-11T22:20:11.536Z,4.60
2023-04-11T22:22:39.604Z,5.40
2023-04-11T22:25:10.015Z,4.47
2023-04-11T22:27:38.536Z,5.07
2023-04-11T22:30:08.777Z,4.40
2023-04-11T22:32:38.330Z,5.07
2023-04-11T22:35:08.438Z,4.30
2023-04-11T22:37:36.885Z,4.80
2023-04-11T22:40:06.877Z,5.57
2023-04-11T22:42:35.713Z,4.13
2023-04-11T22:45:04.068Z,4.50
2023-04-11T22:47:34.338Z,6.57
2023-04-11T22:50:04.066Z,6.40
2023-04-11T22:52:32.127Z,6.53
2023-04-11T22:55:00.253Z,5.67
2023-04-11T22:57:28.312Z,5.13
2023-04-11T22:59:56.402Z,4.67
2023-04-11T23:02:25.308Z,6.43
2023-04-11T23:04:53.693Z,5.03
2023-04-11T23:07:25.255Z,5.33
2023-04-11T23:09:53.614Z,4.80
2023-04-11T23:12:22.056Z,5.80
2023-04-11T23:14:50.435Z,5.20
2023-04-11T23:17:18.522Z,4.57
2023-04-11T23:19:47.181Z,4.67
2023-04-11T23:22:15.242Z,5.07
2023-04-11T23:24:45.373Z,4.80
2023-04-11T23:27:13.775Z,5.90
2023-04-11T23:29:42.255Z,4.83
2023-04-11T23:32:10.292Z,4.70
2023-04-11T23:34:38.376Z,4.57
2023-04-11T23:37:07.829Z,4.67
2023-04-11T23:39:36.513Z,4.60
2023-04-11T23:42:06.246Z,4.23
2023-04-11T23:44:34.457Z,4.90
2023-04-11T23:47:02.539Z,4.70
2023-04-11T23:49:30.608Z,5.23
2023-04-11T23:51:58.752Z,4.73
2023-04-11T23:54:30.001Z,4.70
2023-04-11T23:56:58.941Z,5.40
2023-04-11T23:59:28.496Z,5.10
